sensor_id;sensor_type;location;lat;lon;timestamp;pressure;altitude;pressure_sealevel;temperature;humidity
70072;BME280;57434;42.794;23.302;2023-05-21T00:00:19;95527.69;;;12.70;nan
70072;BME280;57434;42.794;23.302;2023-05-21T00:01:21;95518.75;;;12.88;nan
70072;BME280;57434;42.794;23.302;2023-05-21T00:02:23;95471.38;;;12.59;nan
70072;BME280;57434;42.794;23.302;2023-05-21T00:03:26;95523.09;;;12.95;nan
70072;BME280;57434;42.794;23.302;2023-05-21T00:04:28;95503.91;;;12.82;nan
70072;BME280;57434;42.794;23.302;2023-05-21T00:05:30;95379.50;;;12.06;nan
70072;BME280;57434;42.794;23.302;2023-05-21T00:06:35;95510.81;;;12.93;nan
70072;BME280;57434;42.794;23.302;2023-05-21T00:07:37;95523.63;;;12.94;nan
70072;BME280;57434;42.794;23.302;2023-05-21T00:08:39;95508.00;;;13.04;nan
70072;BME280;57434;42.794;23.302;2023-05-21T00:09:40;95509.53;;;13.10;nan
70072;BME280;57434;42.794;23.302;2023-05-21T00:10:43;95500.06;;;13.08;nan
70072;BME280;57434;42.794;23.302;2023-05-21T00:11:44;95502.38;;;13.09;nan
70072;BME280;57434;42.794;23.302;2023-05-21T00:12:46;95514.41;;;13.15;nan
70072;BME280;57434;42.794;23.302;2023-05-21T00:13:48;95503.88;;;12.99;nan
70072;BME280;57434;42.794;23.302;2023-05-21T00:14:50;95494.69;;;13.04;nan
70072;BME280;57434;42.794;23.302;2023-05-21T00:15:52;95497.50;;;12.93;nan
70072;BME280;57434;42.794;23.302;2023-05-21T00:16:54;95511.59;;;12.93;nan
70072;BME280;57434;42.794;23.302;2023-05-21T00:17:56;95444.28;;;12.67;nan
70072;BME280;57434;42.794;23.302;2023-05-21T00:18:58;95379.03;;;12.30;nan
70072;BME280;57434;42.794;23.302;2023-05-21T00:20:00;95497.25;;;12.91;nan
70072;BME280;57434;42.794;23.302;2023-05-21T00:21:02;95504.16;;;13.07;nan
70072;BME280;57434;42.794;23.302;2023-05-21T00:22:04;95483.44;;;12.93;nan
70072;BME280;57434;42.794;23.302;2023-05-21T00:23:06;95502.63;;;12.95;nan
70072;BME280;57434;42.794;23.302;2023-05-21T00:24:08;95502.09;;;13.02;nan
70072;BME280;57434;42.794;23.302;2023-05-21T00:25:11;95500.06;;;12.97;nan
70072;BME280;57434;42.794;23.302;2023-05-21T00:26:13;95491.38;;;12.95;nan
70072;BME280;57434;42.794;23.302;2023-05-21T00:27:14;95366.22;;;12.23;nan
70072;BME280;57434;42.794;23.302;2023-05-21T00:28:16;95413.81;;;12.49;nan
70072;BME280;57434;42.794;23.302;2023-05-21T00:29:18;95502.09;;;13.07;nan
70072;BME280;57434;42.794;23.302;2023-05-21T00:30:20;95492.38;;;13.08;nan
70072;BME280;57434;42.794;23.302;2023-05-21T00:31:23;95506.72;;;13.05;nan
70072;BME280;57434;42.794;23.302;2023-05-21T00:32:25;95500.31;;;13.15;nan
70072;BME280;57434;42.794;23.302;2023-05-21T00:33:27;95519.00;;;13.07;nan
70072;BME280;57434;42.794;23.302;2023-05-21T00:34:29;95487.00;;;13.05;nan
70072;BME280;57434;42.794;23.302;2023-05-21T00:35:30;95486.47;;;13.01;nan
70072;BME280;57434;42.794;23.302;2023-05-21T00:36:32;95515.41;;;12.96;nan
70072;BME280;57434;42.794;23.302;2023-05-21T00:37:34;95383.88;;;12.24;nan
70072;BME280;57434;42.794;23.302;2023-05-21T00:38:36;95501.34;;;12.84;nan
70072;BME280;57434;42.794;23.302;2023-05-21T00:39:38;95494.19;;;12.83;nan
70072;BME280;57434;42.794;23.302;2023-05-21T00:40:40;95480.34;;;12.63;nan
70072;BME280;57434;42.794;23.302;2023-05-21T00:41:42;95347.72;;;11.66;nan
70072;BME280;57434;42.794;23.302;2023-05-21T00:42:44;95477.25;;;12.50;nan
70072;BME280;57434;42.794;23.302;2023-05-21T00:43:46;95503.09;;;12.54;nan
70072;BME280;57434;42.794;23.302;2023-05-21T00:44:48;95494.91;;;12.56;nan
70072;BME280;57434;42.794;23.302;2023-05-21T00:45:50;95490.28;;;12.42;nan
70072;BME280;57434;42.794;23.302;2023-05-21T00:46:52;95518.16;;;12.34;nan
70072;BME280;57434;42.794;23.302;2023-05-21T00:47:54;95467.44;;;12.12;nan
70072;BME280;57434;42.794;23.302;2023-05-21T00:48:57;95490.50;;;12.21;nan
70072;BME280;57434;42.794;23.302;2023-05-21T00:50:01;95479.47;;;12.12;nan
70072;BME280;57434;42.794;23.302;2023-05-21T00:51:03;95463.28;;;11.96;nan
70072;BME280;57434;42.794;23.302;2023-05-21T00:52:05;95507.81;;;12.14;nan
70072;BME280;57434;42.794;23.302;2023-05-21T00:53:07;95489.38;;;12.02;nan
70072;BME280;57434;42.794;23.302;2023-05-21T00:54:09;95490.13;;;11.97;nan
70072;BME280;57434;42.794;23.302;2023-05-21T00:55:11;95486.53;;;11.85;nan
70072;BME280;57434;42.794;23.302;2023-05-21T00:56:13;95507.22;;;11.88;nan
70072;BME280;57434;42.794;23.302;2023-05-21T00:57:17;95501.84;;;11.90;nan
70072;BME280;57434;42.794;23.302;2023-05-21T00:58:19;95481.91;;;11.82;nan
70072;BME280;57434;42.794;23.302;2023-05-21T00:59:22;95468.09;;;11.79;nan
70072;BME280;57434;42.794;23.302;2023-05-21T01:00:24;95462.72;;;11.75;nan
70072;BME280;57434;42.794;23.302;2023-05-21T01:01:27;95498.78;;;11.88;nan
70072;BME280;57434;42.794;23.302;2023-05-21T01:02:29;95485.50;;;11.83;nan
70072;BME280;57434;42.794;23.302;2023-05-21T01:03:32;95510.03;;;11.88;nan
70072;BME280;57434;42.794;23.302;2023-05-21T01:04:35;95500.31;;;11.83;nan
70072;BME280;57434;42.794;23.302;2023-05-21T01:05:38;95496.75;;;11.94;nan
70072;BME280;57434;42.794;23.302;2023-05-21T01:06:39;95490.06;;;11.75;nan
70072;BME280;57434;42.794;23.302;2023-05-21T01:07:42;95371.19;;;10.98;nan
70072;BME280;57434;42.794;23.302;2023-05-21T01:08:44;95489.03;;;11.78;nan
70072;BME280;57434;42.794;23.302;2023-05-21T01:09:46;95478.75;;;11.64;nan
70072;BME280;57434;42.794;23.302;2023-05-21T01:10:48;95475.94;;;11.64;nan
70072;BME280;57434;42.794;23.302;2023-05-21T01:11:51;95492.34;;;11.76;nan
70072;BME280;57434;42.794;23.302;2023-05-21T01:13:24;95488.81;;;11.87;nan
70072;BME280;57434;42.794;23.302;2023-05-21T01:14:28;95427.59;;;11.48;nan
70072;BME280;57434;42.794;23.302;2023-05-21T01:15:30;95491.38;;;11.85;nan
70072;BME280;57434;42.794;23.302;2023-05-21T01:16:36;95493.16;;;11.82;nan
70072;BME280;57434;42.794;23.302;2023-05-21T01:17:38;95479.03;;;11.71;nan
70072;BME280;57434;42.794;23.302;2023-05-21T01:18:40;95474.72;;;11.76;nan
70072;BME280;57434;42.794;23.302;2023-05-21T01:19:43;95379.13;;;11.05;nan
70072;BME280;57434;42.794;23.302;2023-05-21T01:20:45;95513.31;;;11.75;nan
70072;BME280;57434;42.794;23.302;2023-05-21T01:22:00;95385.19;;;10.93;nan
70072;BME280;57434;42.794;23.302;2023-05-21T01:23:02;95480.00;;;11.63;nan
70072;BME280;57434;42.794;23.302;2023-05-21T01:24:04;95495.16;;;11.76;nan
70072;BME280;57434;42.794;23.302;2023-05-21T01:25:06;95494.69;;;11.89;nan
70072;BME280;57434;42.794;23.302;2023-05-21T01:26:09;95485.50;;;11.83;nan
70072;BME280;57434;42.794;23.302;2023-05-21T01:27:10;95476.75;;;11.70;nan
70072;BME280;57434;42.794;23.302;2023-05-21T01:28:13;95473.69;;;11.73;nan
70072;BME280;57434;42.794;23.302;2023-05-21T01:29:15;95477.81;;;11.89;nan
70072;BME280;57434;42.794;23.302;2023-05-21T01:30:18;95479.88;;;11.88;nan
70072;BME280;57434;42.794;23.302;2023-05-21T01:31:36;95354.16;;;11.13;nan
70072;BME280;57434;42.794;23.302;2023-05-21T01:34:03;95488.56;;;11.91;nan
70072;BME280;57434;42.794;23.302;2023-05-21T01:35:12;95487.06;;;11.95;nan
70072;BME280;57434;42.794;23.302;2023-05-21T01:36:22;95488.06;;;11.92;nan
70072;BME280;57434;42.794;23.302;2023-05-21T01:37:52;95482.72;;;12.00;nan
70072;BME280;57434;42.794;23.302;2023-05-21T01:39:06;95481.97;;;11.99;nan
70072;BME280;57434;42.794;23.302;2023-05-21T01:40:17;95484.25;;;11.95;nan
70072;BME280;57434;42.794;23.302;2023-05-21T01:41:24;95464.31;;;11.93;nan
70072;BME280;57434;42.794;23.302;2023-05-21T01:42:28;95357.44;;;11.06;nan
70072;BME280;57434;42.794;23.302;2023-05-21T01:43:34;95492.19;;;11.97;nan
70072;BME280;57434;42.794;23.302;2023-05-21T01:44:38;95476.59;;;11.96;nan
70072;BME280;57434;42.794;23.302;2023-05-21T01:45:41;95471.69;;;11.91;nan
70072;BME280;57434;42.794;23.302;2023-05-21T01:46:44;95474.50;;;11.91;nan
70072;BME280;57434;42.794;23.302;2023-05-21T01:47:48;95472.22;;;11.83;nan
70072;BME280;57434;42.794;23.302;2023-05-21T01:48:51;95497.50;;;11.89;nan
70072;BME280;57434;42.794;23.302;2023-05-21T01:49:55;95361.28;;;11.08;nan
70072;BME280;57434;42.794;23.302;2023-05-21T01:51:00;95489.84;;;11.89;nan
70072;BME280;57434;42.794;23.302;2023-05-21T01:52:03;95468.13;;;11.90;nan
70072;BME280;57434;42.794;23.302;2023-05-21T01:53:05;95477.63;;;11.98;nan
70072;BME280;57434;42.794;23.302;2023-05-21T01:54:07;95476.31;;;11.94;nan
70072;BME280;57434;42.794;23.302;2023-05-21T01:55:09;95472.72;;;11.87;nan
70072;BME280;57434;42.794;23.302;2023-05-21T01:56:11;95467.31;;;11.78;nan
70072;BME280;57434;42.794;23.302;2023-05-21T01:57:13;95475.75;;;11.78;nan
70072;BME280;57434;42.794;23.302;2023-05-21T01:58:15;95478.06;;;11.80;nan
70072;BME280;57434;42.794;23.302;2023-05-21T01:59:17;95472.97;;;11.84;nan
70072;BME280;57434;42.794;23.302;2023-05-21T02:00:23;95498.78;;;11.88;nan
70072;BME280;57434;42.794;23.302;2023-05-21T02:01:26;95460.97;;;11.89;nan
70072;BME280;57434;42.794;23.302;2023-05-21T02:02:28;95472.94;;;11.78;nan
70072;BME280;57434;42.794;23.302;2023-05-21T02:03:30;95456.84;;;11.79;nan
70072;BME280;57434;42.794;23.302;2023-05-21T02:04:32;95468.53;;;11.66;nan
70072;BME280;57434;42.794;23.302;2023-05-21T02:05:34;95345.72;;;11.07;nan
70072;BME280;57434;42.794;23.302;2023-05-21T02:06:36;95350.09;;;11.14;nan
70072;BME280;57434;42.794;23.302;2023-05-21T02:07:38;95443.78;;;11.70;nan
70072;BME280;57434;42.794;23.302;2023-05-21T02:08:42;95454.56;;;11.83;nan
70072;BME280;57434;42.794;23.302;2023-05-21T02:09:47;95426.63;;;11.57;nan
70072;BME280;57434;42.794;23.302;2023-05-21T02:10:49;95444.06;;;11.78;nan
70072;BME280;57434;42.794;23.302;2023-05-21T02:11:51;95450.47;;;11.78;nan
70072;BME280;57434;42.794;23.302;2023-05-21T02:12:53;95450.47;;;11.78;nan
70072;BME280;57434;42.794;23.302;2023-05-21T02:13:55;95430.22;;;11.58;nan
70072;BME280;57434;42.794;23.302;2023-05-21T02:14:57;95428.34;;;11.43;nan
70072;BME280;57434;42.794;23.302;2023-05-21T02:15:59;95452.16;;;11.53;nan
70072;BME280;57434;42.794;23.302;2023-05-21T02:17:01;95451.72;;;11.72;nan
70072;BME280;57434;42.794;23.302;2023-05-21T02:18:03;95435.56;;;11.61;nan
70072;BME280;57434;42.794;23.302;2023-05-21T02:19:05;95446.34;;;11.74;nan
70072;BME280;57434;42.794;23.302;2023-05-21T02:20:08;95453.03;;;11.82;nan
70072;BME280;57434;42.794;23.302;2023-05-21T02:21:09;95452.50;;;11.78;nan
70072;BME280;57434;42.794;23.302;2023-05-21T02:22:11;95450.44;;;11.73;nan
70072;BME280;57434;42.794;23.302;2023-05-21T02:23:13;95426.88;;;11.53;nan
70072;BME280;57434;42.794;23.302;2023-05-21T02:24:15;95448.34;;;11.62;nan
70072;BME280;57434;42.794;23.302;2023-05-21T02:25:18;95451.38;;;11.59;nan
70072;BME280;57434;42.794;23.302;2023-05-21T02:26:20;95460.84;;;11.61;nan
70072;BME280;57434;42.794;23.302;2023-05-21T02:27:21;95451.41;;;11.64;nan
70072;BME280;57434;42.794;23.302;2023-05-21T02:28:23;95456.53;;;11.66;nan
70072;BME280;57434;42.794;23.302;2023-05-21T02:29:25;95447.06;;;11.58;nan
70072;BME280;57434;42.794;23.302;2023-05-21T02:30:27;95427.91;;;11.56;nan
70072;BME280;57434;42.794;23.302;2023-05-21T02:31:30;95348.00;;;11.03;nan
70072;BME280;57434;42.794;23.302;2023-05-21T02:32:32;95442.97;;;11.59;nan
70072;BME280;57434;42.794;23.302;2023-05-21T02:33:34;95321.63;;;10.47;nan
70072;BME280;57434;42.794;23.302;2023-05-21T02:34:36;95441.84;;;11.39;nan
70072;BME280;57434;42.794;23.302;2023-05-21T02:35:38;95443.84;;;11.33;nan
70072;BME280;57434;42.794;23.302;2023-05-21T02:36:40;95447.94;;;11.32;nan
70072;BME280;57434;42.794;23.302;2023-05-21T02:37:42;95323.50;;;10.61;nan
70072;BME280;57434;42.794;23.302;2023-05-21T02:38:44;95457.72;;;11.42;nan
70072;BME280;57434;42.794;23.302;2023-05-21T02:39:46;95456.41;;;11.38;nan
70072;BME280;57434;42.794;23.302;2023-05-21T02:40:49;95352.63;;;10.69;nan
70072;BME280;57434;42.794;23.302;2023-05-21T02:41:51;95428.28;;;11.27;nan
70072;BME280;57434;42.794;23.302;2023-05-21T02:42:53;95464.56;;;11.36;nan
70072;BME280;57434;42.794;23.302;2023-05-21T02:43:55;95455.94;;;11.45;nan
70072;BME280;57434;42.794;23.302;2023-05-21T02:44:57;95477.88;;;11.41;nan
70072;BME280;57434;42.794;23.302;2023-05-21T02:45:58;95442.84;;;11.36;nan
70072;BME280;57434;42.794;23.302;2023-05-21T02:47:00;95432.38;;;11.37;nan
70072;BME280;57434;42.794;23.302;2023-05-21T02:48:02;95397.28;;;11.10;nan
70072;BME280;57434;42.794;23.302;2023-05-21T02:49:04;95446.69;;;11.39;nan
70072;BME280;57434;42.794;23.302;2023-05-21T02:50:07;95457.75;;;11.48;nan
70072;BME280;57434;42.794;23.302;2023-05-21T02:51:09;95445.66;;;11.36;nan
70072;BME280;57434;42.794;23.302;2023-05-21T02:52:11;95453.84;;;11.40;nan
70072;BME280;57434;42.794;23.302;2023-05-21T02:53:13;95437.47;;;11.33;nan
70072;BME280;57434;42.794;23.302;2023-05-21T02:54:15;95456.16;;;11.41;nan
70072;BME280;57434;42.794;23.302;2023-05-21T02:55:17;95353.13;;;10.68;nan
70072;BME280;57434;42.794;23.302;2023-05-21T02:56:19;95450.25;;;11.34;nan
70072;BME280;57434;42.794;23.302;2023-05-21T02:57:20;95465.03;;;11.29;nan
70072;BME280;57434;42.794;23.302;2023-05-21T02:58:22;95463.25;;;11.31;nan
70072;BME280;57434;42.794;23.302;2023-05-21T02:59:24;95453.31;;;11.30;nan
70072;BME280;57434;42.794;23.302;2023-05-21T03:00:26;95425.44;;;11.21;nan
70072;BME280;57434;42.794;23.302;2023-05-21T03:01:28;95436.44;;;11.25;nan
70072;BME280;57434;42.794;23.302;2023-05-21T03:02:31;95470.44;;;11.38;nan
70072;BME280;57434;42.794;23.302;2023-05-21T03:03:33;95434.63;;;11.22;nan
70072;BME280;57434;42.794;23.302;2023-05-21T03:04:35;95441.81;;;11.34;nan
70072;BME280;57434;42.794;23.302;2023-05-21T03:05:37;95444.34;;;11.26;nan
70072;BME280;57434;42.794;23.302;2023-05-21T03:06:39;95434.34;;;11.19;nan
70072;BME280;57434;42.794;23.302;2023-05-21T03:07:41;95449.69;;;11.24;nan
70072;BME280;57434;42.794;23.302;2023-05-21T03:08:43;95470.69;;;11.34;nan
70072;BME280;57434;42.794;23.302;2023-05-21T03:09:45;95442.09;;;11.30;nan
70072;BME280;57434;42.794;23.302;2023-05-21T03:10:47;95444.94;;;11.41;nan
70072;BME280;57434;42.794;23.302;2023-05-21T03:11:49;95417.78;;;11.22;nan
70072;BME280;57434;42.794;23.302;2023-05-21T03:12:51;95445.66;;;11.31;nan
70072;BME280;57434;42.794;23.302;2023-05-21T03:13:54;95423.84;;;11.14;nan
70072;BME280;57434;42.794;23.302;2023-05-21T03:14:55;95410.03;;;11.11;nan
70072;BME280;57434;42.794;23.302;2023-05-21T03:15:57;95443.63;;;11.37;nan
70072;BME280;57434;42.794;23.302;2023-05-21T03:16:59;95435.16;;;11.26;nan
70072;BME280;57434;42.794;23.302;2023-05-21T03:18:01;95336.25;;;10.62;nan
70072;BME280;57434;42.794;23.302;2023-05-21T03:19:03;95332.44;;;10.65;nan
70072;BME280;57434;42.794;23.302;2023-05-21T03:20:05;95438.25;;;11.33;nan
70072;BME280;57434;42.794;23.302;2023-05-21T03:21:07;95442.34;;;11.38;nan
70072;BME280;57434;42.794;23.302;2023-05-21T03:22:09;95373.56;;;10.74;nan
70072;BME280;57434;42.794;23.302;2023-05-21T03:23:12;95446.66;;;11.28;nan
70072;BME280;57434;42.794;23.302;2023-05-21T03:24:16;95387.78;;;10.96;nan
70072;BME280;57434;42.794;23.302;2023-05-21T03:25:18;95421.00;;;11.09;nan
70072;BME280;57434;42.794;23.302;2023-05-21T03:26:20;95338.59;;;10.69;nan
70072;BME280;57434;42.794;23.302;2023-05-21T03:27:22;95427.00;;;11.28;nan
70072;BME280;57434;42.794;23.302;2023-05-21T03:28:24;95454.41;;;11.44;nan
70072;BME280;57434;42.794;23.302;2023-05-21T03:29:26;95461.34;;;11.60;nan
70072;BME280;57434;42.794;23.302;2023-05-21T03:30:28;95450.09;;;11.48;nan
70072;BME280;57434;42.794;23.302;2023-05-21T03:31:30;95398.28;;;11.01;nan
70072;BME280;57434;42.794;23.302;2023-05-21T03:32:32;95370.78;;;10.74;nan
70072;BME280;57434;42.794;23.302;2023-05-21T03:33:34;95452.78;;;11.26;nan
70072;BME280;57434;42.794;23.302;2023-05-21T03:34:36;95458.91;;;11.25;nan
70072;BME280;57434;42.794;23.302;2023-05-21T03:35:38;95344.34;;;10.54;nan
70072;BME280;57434;42.794;23.302;2023-05-21T03:36:40;95453.03;;;11.28;nan
70072;BME280;57434;42.794;23.302;2023-05-21T03:37:42;95461.97;;;11.27;nan
70072;BME280;57434;42.794;23.302;2023-05-21T03:38:44;95321.22;;;10.28;nan
70072;BME280;57434;42.794;23.302;2023-05-21T03:39:46;95409.81;;;10.77;nan
70072;BME280;57434;42.794;23.302;2023-05-21T03:40:48;95449.94;;;10.83;nan
70072;BME280;57434;42.794;23.302;2023-05-21T03:41:50;95465.31;;;10.94;nan
70072;BME280;57434;42.794;23.302;2023-05-21T03:42:51;95462.56;;;10.99;nan
70072;BME280;57434;42.794;23.302;2023-05-21T03:43:53;95449.94;;;10.83;nan
70072;BME280;57434;42.794;23.302;2023-05-21T03:44:55;95451.66;;;10.75;nan
70072;BME280;57434;42.794;23.302;2023-05-21T03:45:57;95460.88;;;10.81;nan
70072;BME280;57434;42.794;23.302;2023-05-21T03:46:59;95467.97;;;10.77;nan
70072;BME280;57434;42.794;23.302;2023-05-21T03:48:01;95467.72;;;10.75;nan
70072;BME280;57434;42.794;23.302;2023-05-21T03:49:03;95457.97;;;10.70;nan
70072;BME280;57434;42.794;23.302;2023-05-21T03:50:05;95482.78;;;10.77;nan
70072;BME280;57434;42.794;23.302;2023-05-21T03:51:07;95465.41;;;10.73;nan
70072;BME280;57434;42.794;23.302;2023-05-21T03:52:09;95462.88;;;10.75;nan
70072;BME280;57434;42.794;23.302;2023-05-21T03:53:11;95453.84;;;10.66;nan
70072;BME280;57434;42.794;23.302;2023-05-21T03:54:13;95459.63;;;10.82;nan
70072;BME280;57434;42.794;23.302;2023-05-21T03:55:15;95410.63;;;10.46;nan
70072;BME280;57434;42.794;23.302;2023-05-21T03:56:17;95457.16;;;10.96;nan
70072;BME280;57434;42.794;23.302;2023-05-21T03:57:19;95424.69;;;10.83;nan
70072;BME280;57434;42.794;23.302;2023-05-21T03:58:21;95338.59;;;10.32;nan
70072;BME280;57434;42.794;23.302;2023-05-21T03:59:23;95454.97;;;11.11;nan
70072;BME280;57434;42.794;23.302;2023-05-21T04:00:25;95465.28;;;11.25;nan
70072;BME280;57434;42.794;23.302;2023-05-21T04:01:26;95458.91;;;11.25;nan
70072;BME280;57434;42.794;23.302;2023-05-21T04:02:29;95451.78;;;11.29;nan
70072;BME280;57434;42.794;23.302;2023-05-21T04:03:30;95468.13;;;11.36;nan
70072;BME280;57434;42.794;23.302;2023-05-21T04:04:33;95362.84;;;10.72;nan
70072;BME280;57434;42.794;23.302;2023-05-21T04:05:34;95390.53;;;10.91;nan
70072;BME280;57434;42.794;23.302;2023-05-21T04:06:37;95461.22;;;11.32;nan
70072;BME280;57434;42.794;23.302;2023-05-21T04:07:38;95470.47;;;11.43;nan
70072;BME280;57434;42.794;23.302;2023-05-21T04:08:40;95451.56;;;11.38;nan
70072;BME280;57434;42.794;23.302;2023-05-21T04:09:42;95343.41;;;10.63;nan
70072;BME280;57434;42.794;23.302;2023-05-21T04:10:44;95472.84;;;11.56;nan
70072;BME280;57434;42.794;23.302;2023-05-21T04:11:46;95455.34;;;11.30;nan
70072;BME280;57434;42.794;23.302;2023-05-21T04:12:48;95456.47;;;11.49;nan
70072;BME280;57434;42.794;23.302;2023-05-21T04:13:50;95461.09;;;11.52;nan
70072;BME280;57434;42.794;23.302;2023-05-21T04:14:51;95464.16;;;11.60;nan
70072;BME280;57434;42.794;23.302;2023-05-21T04:15:53;95470.56;;;11.60;nan
70072;BME280;57434;42.794;23.302;2023-05-21T04:16:55;95466.56;;;11.78;nan
70072;BME280;57434;42.794;23.302;2023-05-21T04:17:57;95463.00;;;11.83;nan
70072;BME280;57434;42.794;23.302;2023-05-21T04:18:59;95365.34;;;11.07;nan
70072;BME280;57434;42.794;23.302;2023-05-21T04:20:02;95459.41;;;11.77;nan
70072;BME280;57434;42.794;23.302;2023-05-21T04:21:04;95459.84;;;11.64;nan
70072;BME280;57434;42.794;23.302;2023-05-21T04:22:06;95418.47;;;11.65;nan
70072;BME280;57434;42.794;23.302;2023-05-21T04:23:07;95464.28;;;11.87;nan
70072;BME280;57434;42.794;23.302;2023-05-21T04:24:09;95464.63;;;12.06;nan
70072;BME280;57434;42.794;23.302;2023-05-21T04:25:11;95456.63;;;11.82;nan
70072;BME280;57434;42.794;23.302;2023-05-21T04:26:13;95346.16;;;10.95;nan
70072;BME280;57434;42.794;23.302;2023-05-21T04:27:15;95451.81;;;11.40;nan
70072;BME280;57434;42.794;23.302;2023-05-21T04:28:17;95442.81;;;11.25;nan
70072;BME280;57434;42.794;23.302;2023-05-21T04:29:19;95466.69;;;11.52;nan
70072;BME280;57434;42.794;23.302;2023-05-21T04:30:21;95468.81;;;11.68;nan
70072;BME280;57434;42.794;23.302;2023-05-21T04:31:23;95450.19;;;11.71;nan
70072;BME280;57434;42.794;23.302;2023-05-21T04:32:25;95475.94;;;11.58;nan
70072;BME280;57434;42.794;23.302;2023-05-21T04:33:27;95339.09;;;10.68;nan
70072;BME280;57434;42.794;23.302;2023-05-21T04:34:29;95472.56;;;11.48;nan
70072;BME280;57434;42.794;23.302;2023-05-21T04:35:31;95490.69;;;11.47;nan
70072;BME280;57434;42.794;23.302;2023-05-21T04:36:33;95352.63;;;10.69;nan
70072;BME280;57434;42.794;23.302;2023-05-21T04:37:35;95465.41;;;11.47;nan
70072;BME280;57434;42.794;23.302;2023-05-21T04:38:37;95470.31;;;11.64;nan
70072;BME280;57434;42.794;23.302;2023-05-21T04:39:39;95460.66;;;11.76;nan
70072;BME280;57434;42.794;23.302;2023-05-21T04:40:41;95444.06;;;11.78;nan
70072;BME280;57434;42.794;23.302;2023-05-21T04:41:43;95452.94;;;11.65;nan
70072;BME280;57434;42.794;23.302;2023-05-21T04:42:45;95341.63;;;11.03;nan
70072;BME280;57434;42.794;23.302;2023-05-21T04:43:46;95340.13;;;11.13;nan
70072;BME280;57434;42.794;23.302;2023-05-21T04:44:49;95403.63;;;11.59;nan
70072;BME280;57434;42.794;23.302;2023-05-21T04:45:52;95488.63;;;12.02;nan
70072;BME280;57434;42.794;23.302;2023-05-21T04:46:54;95471.16;;;11.86;nan
70072;BME280;57434;42.794;23.302;2023-05-21T04:47:56;95404.91;;;11.52;nan
70072;BME280;57434;42.794;23.302;2023-05-21T04:48:58;95399.06;;;11.67;nan
70072;BME280;57434;42.794;23.302;2023-05-21T04:50:01;95462.53;;;12.01;nan
70072;BME280;57434;42.794;23.302;2023-05-21T04:51:03;95463.91;;;12.23;nan
70072;BME280;57434;42.794;23.302;2023-05-21T04:52:05;95322.31;;;11.33;nan
70072;BME280;57434;42.794;23.302;2023-05-21T04:53:07;95462.66;;;12.29;nan
70072;BME280;57434;42.794;23.302;2023-05-21T04:54:08;95395.03;;;11.90;nan
70072;BME280;57434;42.794;23.302;2023-05-21T04:55:10;95462.88;;;12.26;nan
70072;BME280;57434;42.794;23.302;2023-05-21T04:56:13;95461.63;;;12.32;nan
70072;BME280;57434;42.794;23.302;2023-05-21T04:57:15;95440.91;;;12.30;nan
70072;BME280;57434;42.794;23.302;2023-05-21T04:58:17;95465.22;;;12.44;nan
70072;BME280;57434;42.794;23.302;2023-05-21T04:59:19;95477.78;;;12.60;nan
70072;BME280;57434;42.794;23.302;2023-05-21T05:00:21;95472.41;;;12.56;nan
70072;BME280;57434;42.794;23.302;2023-05-21T05:01:23;95481.09;;;12.47;nan
70072;BME280;57434;42.794;23.302;2023-05-21T05:02:25;95485.47;;;12.59;nan
70072;BME280;57434;42.794;23.302;2023-05-21T05:03:28;95482.63;;;12.70;nan
70072;BME280;57434;42.794;23.302;2023-05-21T05:04:30;95335.25;;;11.84;nan
70072;BME280;57434;42.794;23.302;2023-05-21T05:05:32;95468.31;;;12.79;nan
70072;BME280;57434;42.794;23.302;2023-05-21T05:06:34;95461.41;;;12.80;nan
70072;BME280;57434;42.794;23.302;2023-05-21T05:07:36;95445.03;;;12.84;nan
70072;BME280;57434;42.794;23.302;2023-05-21T05:08:38;95396.44;;;12.39;nan
70072;BME280;57434;42.794;23.302;2023-05-21T05:09:40;95440.69;;;12.95;nan
70072;BME280;57434;42.794;23.302;2023-05-21T05:10:42;95445.78;;;13.02;nan
70072;BME280;57434;42.794;23.302;2023-05-21T05:11:44;95484.44;;;12.84;nan
70072;BME280;57434;42.794;23.302;2023-05-21T05:12:47;95464.97;;;12.98;nan
70072;BME280;57434;42.794;23.302;2023-05-21T05:13:49;95416.09;;;12.73;nan
70072;BME280;57434;42.794;23.302;2023-05-21T05:14:50;95458.84;;;13.05;nan
70072;BME280;57434;42.794;23.302;2023-05-21T05:15:52;95373.16;;;12.61;nan
70072;BME280;57434;42.794;23.302;2023-05-21T05:16:55;95345.00;;;12.44;nan
70072;BME280;57434;42.794;23.302;2023-05-21T05:17:57;95439.13;;;13.16;nan
70072;BME280;57434;42.794;23.302;2023-05-21T05:18:59;95462.88;;;13.32;nan
70072;BME280;57434;42.794;23.302;2023-05-21T05:20:01;95458.78;;;13.38;nan
70072;BME280;57434;42.794;23.302;2023-05-21T05:21:03;95332.44;;;12.73;nan
70072;BME280;57434;42.794;23.302;2023-05-21T05:22:06;95466.94;;;13.70;nan
70072;BME280;57434;42.794;23.302;2023-05-21T05:23:08;95455.66;;;13.70;nan
70072;BME280;57434;42.794;23.302;2023-05-21T05:24:10;95458.91;;;13.85;nan
70072;BME280;57434;42.794;23.302;2023-05-21T05:25:12;95457.59;;;13.97;nan
70072;BME280;57434;42.794;23.302;2023-05-21T05:26:13;95463.75;;;13.96;nan
70072;BME280;57434;42.794;23.302;2023-05-21T05:27:15;95481.09;;;14.11;nan
70072;BME280;57434;42.794;23.302;2023-05-21T05:28:17;95427.06;;;14.01;nan
70072;BME280;57434;42.794;23.302;2023-05-21T05:29:19;95440.56;;;14.14;nan
70072;BME280;57434;42.794;23.302;2023-05-21T05:30:21;95458.09;;;13.96;nan
70072;BME280;57434;42.794;23.302;2023-05-21T05:31:23;95414.75;;;13.99;nan
70072;BME280;57434;42.794;23.302;2023-05-21T05:32:25;95460.63;;;14.51;nan
70072;BME280;57434;42.794;23.302;2023-05-21T05:33:27;95463.16;;;14.55;nan
70072;BME280;57434;42.794;23.302;2023-05-21T05:34:29;95360.84;;;14.08;nan
70072;BME280;57434;42.794;23.302;2023-05-21T05:35:30;95326.22;;;14.07;nan
70072;BME280;57434;42.794;23.302;2023-05-21T05:36:32;95385.16;;;14.57;nan